Santa Mae Laura — CUQJ — position and weather

sailwx.info

Track history (hours):
 
Tides and Currents Weather Stations Pressure Air Temp Water Temp Dewpoint Dewpoint Depression Visibility Wind Speed Wind Dir Waves Ship Positions

Santa Mae Laura

Last reported at 2015-Aug-02 17:29 UTC. Time now 2015-Aug-03 02:34 UTC.
Position N 40°06' W 008°60'.

Length 24 m.

Type: Fishing. MMSI: 263432000.

Date/timePositionNaut miles runAvg speedWind from/ knotsBaromVisibWave heightAir tempDewpointWater temp
2015-Aug-02 17:29N 40°06' W 008°60'9 9.8
2015-Aug-02 16:32N 40°03' W 009°11'22 2.8
2015-Aug-02 08:32N 39°46' W 009°31'2 1.9
2015-Aug-02 07:33N 39°45' W 009°30'4 3.8
2015-Aug-02 06:33N 39°41' W 009°29'4 3.8
2015-Aug-02 05:33N 39°37' W 009°29'2 0.8
2015-Aug-02 03:29N 39°35' W 009°29'0 0.0
2015-Aug-01 20:17N 39°36' W 009°29'3 3.1
2015-Aug-01 19:14N 39°39' W 009°29'3 4.0
2015-Aug-01 18:32N 39°42' W 009°30'7 3.6
2015-Aug-01 16:33N 39°49' W 009°31'4 4.0
2015-Aug-01 15:33N 39°53' W 009°29'  
2015-Jul-29 12:27N 40°07' W 009°18'8 4.0
2015-Jul-29 10:33N 39°59' W 009°20'10 0.4
2015-Jul-28 06:10N 40°09' W 009°25'3 4.1
2015-Jul-28 05:23N 40°12' W 009°25'1 1.3
2015-Jul-28 04:33N 40°13' W 009°25'3 2.9
2015-Jul-28 03:29N 40°10' W 009°25'4 4.1
2015-Jul-28 02:33N 40°06' W 009°26'5 4.8
2015-Jul-28 01:33N 40°02' W 009°27'10 4.8
2015-Jul-27 23:31N 39°52' W 009°30'5 4.6
2015-Jul-27 22:23N 39°47' W 009°31'4 4.4
2015-Jul-27 21:28N 39°43' W 009°32'1 1.4
2015-Jul-27 20:33N 39°42' W 009°32'3 2.8
2015-Jul-27 19:32N 39°45' W 009°32'4 4.0
2015-Jul-27 18:33N 39°48' W 009°32'4 4.0
2015-Jul-27 17:33N 39°52' W 009°33'18 4.5
2015-Jul-27 13:33N 40°07' W 009°19'4 3.8
2015-Jul-27 12:31N 40°03' W 009°23'4 3.7
2015-Jul-27 11:28N 39°60' W 009°22'5 3.8
2015-Jul-27 10:05N 39°55' W 009°25'14 2.5
2015-Jul-27 04:30N 40°08' W 009°20'9 9.0
2015-Jul-27 03:33N 40°17' W 009°20'9 8.9
2015-Jul-27 02:31N 40°26' W 009°19'8 8.6
2015-Jul-27 01:33N 40°34' W 009°18'9 8.6
2015-Jul-27 00:33N 40°43' W 009°17'  
2015-Jul-23 22:24N 40°34' W 009°18'910.1
2015-Jul-23 21:33N 40°25' W 009°18'19 7.9
2015-Jul-23 19:08N 40°06' W 009°20'3 3.9
2015-Jul-23 18:29N 40°04' W 009°22'4 4.0
2015-Jul-23 17:33N 40°02' W 009°25'  
Track history (hours):
 
Tides and Currents Weather Stations Pressure Air Temp Water Temp Dewpoint Dewpoint Depression Visibility Wind Speed Wind Dir Waves Ship Positions

Santa Mae Laura

Last reported at 2015-Aug-02 17:29 UTC. Time now 2015-Aug-03 02:34 UTC.
Position N 40°06' W 008°60'.

Length 24 m.

Type: Fishing. MMSI: 263432000.

Date/timePositionNaut miles runAvg speedWind from/ knotsBaromVisibWave heightAir tempDewpointWater temp
2015-Aug-02 17:29N 40°06' W 008°60'9 9.8
2015-Aug-02 16:32N 40°03' W 009°11'22 2.8
2015-Aug-02 08:32N 39°46' W 009°31'2 1.9
2015-Aug-02 07:33N 39°45' W 009°30'4 3.8
2015-Aug-02 06:33N 39°41' W 009°29'4 3.8
2015-Aug-02 05:33N 39°37' W 009°29'2 0.8
2015-Aug-02 03:29N 39°35' W 009°29'0 0.0
2015-Aug-01 20:17N 39°36' W 009°29'3 3.1
2015-Aug-01 19:14N 39°39' W 009°29'3 4.0
2015-Aug-01 18:32N 39°42' W 009°30'7 3.6
2015-Aug-01 16:33N 39°49' W 009°31'4 4.0
2015-Aug-01 15:33N 39°53' W 009°29'  
2015-Jul-29 12:27N 40°07' W 009°18'8 4.0
2015-Jul-29 10:33N 39°59' W 009°20'10 0.4
2015-Jul-28 06:10N 40°09' W 009°25'3 4.1
2015-Jul-28 05:23N 40°12' W 009°25'1 1.3
2015-Jul-28 04:33N 40°13' W 009°25'3 2.9
2015-Jul-28 03:29N 40°10' W 009°25'4 4.1
2015-Jul-28 02:33N 40°06' W 009°26'5 4.8
2015-Jul-28 01:33N 40°02' W 009°27'10 4.8
2015-Jul-27 23:31N 39°52' W 009°30'5 4.6
2015-Jul-27 22:23N 39°47' W 009°31'4 4.4
2015-Jul-27 21:28N 39°43' W 009°32'1 1.4
2015-Jul-27 20:33N 39°42' W 009°32'3 2.8
2015-Jul-27 19:32N 39°45' W 009°32'4 4.0
2015-Jul-27 18:33N 39°48' W 009°32'4 4.0
2015-Jul-27 17:33N 39°52' W 009°33'18 4.5
2015-Jul-27 13:33N 40°07' W 009°19'4 3.8
2015-Jul-27 12:31N 40°03' W 009°23'4 3.7
2015-Jul-27 11:28N 39°60' W 009°22'5 3.8
2015-Jul-27 10:05N 39°55' W 009°25'14 2.5
2015-Jul-27 04:30N 40°08' W 009°20'9 9.0
2015-Jul-27 03:33N 40°17' W 009°20'9 8.9
2015-Jul-27 02:31N 40°26' W 009°19'8 8.6
2015-Jul-27 01:33N 40°34' W 009°18'9 8.6
2015-Jul-27 00:33N 40°43' W 009°17'  
2015-Jul-23 22:24N 40°34' W 009°18'910.1
2015-Jul-23 21:33N 40°25' W 009°18'19 7.9
2015-Jul-23 19:08N 40°06' W 009°20'3 3.9
2015-Jul-23 18:29N 40°04' W 009°22'4 4.0
2015-Jul-23 17:33N 40°02' W 009°25'  

Dump ship's entire track history